Time;durP1;ratioP1;P1;durP2;ratioP2;P2;SDS_P1;SDS_P2;PMS_P1;PMS_P2;Temp;Humidity;BMP_temperature;BMP_pressure;BME280_temperature;BME280_humidity;BME280_pressure;Samples;Min_cycle;Max_cycle;Signal;HPM_P1;HPM_P2
2024/02/22 00:00:26;;;;;;;21.30;13.93;;;;;;;;;;5024339;28;58497;-76
2024/02/22 00:02:51;;;;;;;21.00;13.50;;;;;;;;;;5012251;28;58422;-76
2024/02/22 00:05:16;;;;;;;23.50;13.93;;;;;;;;;;5020483;28;58634;-76
2024/02/22 00:07:41;;;;;;;22.43;14.07;;;;;;;;;;5026861;28;58453;-75
2024/02/22 00:10:08;;;;;;;27.70;15.63;;;;;;;;;;5024214;28;58461;-74
2024/02/22 00:12:37;;;;;;;24.67;16.45;;;;;;;;;;5025082;28;58319;-75
2024/02/22 00:15:03;;;;;;;22.50;15.23;;;;;;;;;;5025367;28;59568;-75
2024/02/22 00:17:28;;;;;;;23.42;15.07;;;;;;;;;;5024037;28;60164;-75
2024/02/22 00:19:53;;;;;;;24.73;16.13;;;;;;;;;;5022080;28;58387;-74
2024/02/22 00:22:19;;;;;;;26.97;15.13;;;;;;;;;;5017678;28;58570;-74
2024/02/22 00:24:44;;;;;;;24.10;15.90;;;;;;;;;;5017656;28;58441;-74
2024/02/22 00:27:09;;;;;;;28.10;16.03;;;;;;;;;;5029360;28;60371;-74
2024/02/22 00:29:34;;;;;;;23.37;15.93;;;;;;;;;;5028905;28;60003;-74
2024/02/22 00:32:00;;;;;;;28.53;16.90;;;;;;;;;;5030234;28;58513;-74
2024/02/22 00:34:25;;;;;;;24.85;14.88;;;;;;;;;;5032066;28;59446;-74
2024/02/22 00:36:50;;;;;;;25.83;16.27;;;;;;;;;;5028056;28;58414;-74
2024/02/22 00:39:16;;;;;;;21.53;15.23;;;;;;;;;;5030002;27;58595;-74
2024/02/22 00:41:41;;;;;;;23.80;15.90;;;;;;;;;;5017755;28;60140;-74
2024/02/22 00:44:07;;;;;;;22.88;15.05;;;;;;;;;;5017344;28;58383;-74
2024/02/22 00:46:32;;;;;;;24.15;16.27;;;;;;;;;;5017771;28;59677;-71
2024/02/22 00:48:58;;;;;;;25.08;15.38;;;;;;;;;;5014508;28;59004;-73
2024/02/22 00:51:23;;;;;;;29.43;17.27;;;;;;;;;;5030651;28;58606;-72
2024/02/22 00:53:48;;;;;;;25.00;15.80;;;;;;;;;;5020323;28;59028;-72
2024/02/22 00:56:14;;;;;;;23.10;14.47;;;;;;;;;;5023041;28;59651;-72
2024/02/22 00:58:40;;;;;;;25.73;16.40;;;;;;;;;;5025042;28;58424;-71
2024/02/22 01:01:07;;;;;;;21.20;14.50;;;;;;;;;;5016831;28;60455;-72
2024/02/22 01:03:32;;;;;;;21.52;15.48;;;;;;;;;;5019530;28;58359;-72
2024/02/22 01:05:57;;;;;;;28.92;15.40;;;;;;;;;;5026554;28;60537;-71
2024/02/22 01:08:22;;;;;;;22.20;15.53;;;;;;;;;;5021116;28;59144;-72
2024/02/22 01:10:48;;;;;;;23.67;15.63;;;;;;;;;;5017824;28;58450;-74
2024/02/22 01:13:13;;;;;;;22.52;15.23;;;;;;;;;;5021608;28;58550;-74
2024/02/22 01:15:38;;;;;;;23.42;15.40;;;;;;;;;;5028467;28;58505;-74
2024/02/22 01:18:03;;;;;;;24.30;16.00;;;;;;;;;;5028126;28;58474;-74
2024/02/22 01:20:28;;;;;;;22.25;13.30;;;;;;;;;;5027818;28;58716;-72
2024/02/22 01:22:55;;;;;;;22.23;15.03;;;;;;;;;;5026678;28;59759;-72
2024/02/22 01:25:20;;;;;;;25.73;15.98;;;;;;;;;;5025659;28;60194;-72
2024/02/22 01:27:45;;;;;;;25.20;16.52;;;;;;;;;;5015456;28;58772;-72
2024/02/22 01:30:10;;;;;;;25.48;16.00;;;;;;;;;;5015834;28;58527;-71
2024/02/22 01:32:38;;;;;;;25.10;15.77;;;;;;;;;;5016794;28;59177;-72
2024/02/22 01:35:04;;;;;;;28.17;16.60;;;;;;;;;;5015421;28;61098;-71
2024/02/22 01:37:29;;;;;;;21.17;15.23;;;;;;;;;;5020908;28;58517;-71
2024/02/22 01:39:54;;;;;;;21.98;15.48;;;;;;;;;;5029848;28;58358;-72
2024/02/22 01:42:19;;;;;;;20.95;13.85;;;;;;;;;;5014361;28;58587;-71
2024/02/22 01:44:44;;;;;;;22.00;13.07;;;;;;;;;;5024795;28;58434;-72
2024/02/22 01:47:09;;;;;;;22.30;15.47;;;;;;;;;;5025624;28;58799;-72
2024/02/22 01:49:35;;;;;;;22.30;15.25;;;;;;;;;;5026437;28;58432;-71
2024/02/22 01:52:01;;;;;;;23.65;14.48;;;;;;;;;;5027989;28;58315;-72
2024/02/22 01:54:26;;;;;;;26.25;15.70;;;;;;;;;;5016683;28;58582;-72
2024/02/22 01:56:51;;;;;;;23.47;16.00;;;;;;;;;;5023950;28;58513;-72
2024/02/22 01:59:16;;;;;;;22.45;14.50;;;;;;;;;;5028773;28;58449;-72
2024/02/22 02:01:42;;;;;;;22.60;15.10;;;;;;;;;;5027578;28;58442;-71
2024/02/22 02:04:08;;;;;;;22.67;13.52;;;;;;;;;;5027449;28;58409;-72
2024/02/22 02:06:34;;;;;;;22.63;14.05;;;;;;;;;;5026847;28;59401;-71
2024/02/22 02:08:59;;;;;;;24.00;14.18;;;;;;;;;;5028006;28;58586;-71
2024/02/22 02:11:24;;;;;;;21.50;14.30;;;;;;;;;;5021571;28;58543;-71
2024/02/22 02:13:50;;;;;;;20.95;14.43;;;;;;;;;;5014590;28;58688;-71
2024/02/22 02:16:15;;;;;;;20.70;13.77;;;;;;;;;;5015174;28;58545;-72
2024/02/22 02:18:40;;;;;;;20.70;13.20;;;;;;;;;;5013202;28;58443;-72
2024/02/22 02:21:24;;;;;;;21.83;13.07;;;;;;;;;;5017342;28;58754;-74
2024/02/22 02:24:06;;;;;;;21.58;15.18;;;;;;;;;;5013556;28;58498;-74
2024/02/22 02:26:31;;;;;;;19.48;13.18;;;;;;;;;;5024504;28;58669;-74
2024/02/22 02:28:56;;;;;;;17.60;12.87;;;;;;;;;;5021405;28;58572;-73
2024/02/22 02:31:21;;;;;;;16.65;12.70;;;;;;;;;;5008962;28;58387;-73
2024/02/22 02:33:46;;;;;;;20.93;13.47;;;;;;;;;;5013531;28;58933;-73
2024/02/22 02:36:11;;;;;;;16.90;12.25;;;;;;;;;;5014383;28;58536;-73
2024/02/22 02:38:36;;;;;;;17.90;12.27;;;;;;;;;;5022620;28;59605;-73
2024/02/22 02:41:02;;;;;;;20.23;13.93;;;;;;;;;;5021902;28;58361;-73
2024/02/22 02:43:27;;;;;;;18.73;13.47;;;;;;;;;;5016243;28;58534;-73
2024/02/22 02:45:52;;;;;;;16.23;11.85;;;;;;;;;;5016550;28;58341;-73
2024/02/22 02:48:19;;;;;;;17.42;11.75;;;;;;;;;;5016033;28;58463;-73
2024/02/22 02:50:45;;;;;;;20.35;13.10;;;;;;;;;;5024735;28;58439;-73
2024/02/22 02:53:10;;;;;;;19.05;12.85;;;;;;;;;;5018692;28;58589;-73
2024/02/22 02:55:35;;;;;;;18.93;13.07;;;;;;;;;;5016177;28;58500;-73
2024/02/22 02:58:02;;;;;;;17.80;12.32;;;;;;;;;;5016870;28;58457;-73
2024/02/22 03:00:27;;;;;;;17.42;11.65;;;;;;;;;;5013464;28;58892;-73
2024/02/22 03:02:56;;;;;;;14.73;11.33;;;;;;;;;;5024511;28;58177;-73
2024/02/22 03:05:21;;;;;;;19.88;12.88;;;;;;;;;;5020039;28;58465;-73
2024/02/22 03:07:46;;;;;;;19.00;11.48;;;;;;;;;;5012610;28;58895;-73
2024/02/22 03:10:11;;;;;;;16.85;12.65;;;;;;;;;;5018971;28;58156;-74
2024/02/22 03:12:37;;;;;;;16.53;11.73;;;;;;;;;;5025516;28;58952;-73
2024/02/22 03:15:02;;;;;;;18.35;13.32;;;;;;;;;;5011798;28;58867;-73
2024/02/22 03:17:28;;;;;;;19.87;12.87;;;;;;;;;;5022588;28;59579;-73
2024/02/22 03:19:53;;;;;;;18.20;11.90;;;;;;;;;;5024905;28;58336;-73
2024/02/22 03:22:21;;;;;;;14.82;11.52;;;;;;;;;;5026609;28;58310;-73
2024/02/22 03:24:48;;;;;;;;;;;;;;;;;;5026767;28;59437;-73
2024/02/22 03:27:13;;;;;;;14.57;11.00;;;;;;;;;;5015860;28;59189;-73
2024/02/22 03:29:38;;;;;;;13.75;10.45;;;;;;;;;;5024705;28;58375;-75
2024/02/22 03:32:03;;;;;;;15.25;10.65;;;;;;;;;;5027999;28;58346;-74
2024/02/22 03:34:28;;;;;;;16.88;10.77;;;;;;;;;;5025339;28;58429;-74
2024/02/22 03:36:54;;;;;;;14.90;10.30;;;;;;;;;;5026593;28;59341;-74
2024/02/22 03:39:20;;;;;;;15.23;11.33;;;;;;;;;;5025255;28;58690;-74
2024/02/22 03:41:45;;;;;;;18.02;12.00;;;;;;;;;;5018626;28;58466;-74
2024/02/22 03:44:11;;;;;;;15.82;11.13;;;;;;;;;;5013835;28;59091;-74
2024/02/22 03:46:37;;;;;;;17.58;10.98;;;;;;;;;;5016757;28;59372;-73
2024/02/22 03:49:02;;;;;;;14.15;10.88;;;;;;;;;;5027401;28;58472;-74
2024/02/22 03:51:27;;;;;;;14.90;11.10;;;;;;;;;;5015678;28;59203;-74
2024/02/22 03:53:52;;;;;;;15.95;11.20;;;;;;;;;;5022342;28;58434;-74
2024/02/22 03:56:18;;;;;;;17.23;10.40;;;;;;;;;;5021352;28;58533;-74
2024/02/22 03:58:43;;;;;;;13.77;9.23;;;;;;;;;;5018811;28;58734;-74
2024/02/22 04:01:08;;;;;;;15.23;9.83;;;;;;;;;;5024892;28;58314;-74
2024/02/22 04:03:34;;;;;;;13.83;10.20;;;;;;;;;;5016385;28;59153;-74
2024/02/22 04:05:59;;;;;;;13.82;9.38;;;;;;;;;;5023045;28;59237;-74
2024/02/22 04:08:24;;;;;;;15.70;10.20;;;;;;;;;;5026469;27;58437;-74
2024/02/22 04:10:49;;;;;;;13.57;9.23;;;;;;;;;;5027260;28;58428;-74
2024/02/22 04:13:15;;;;;;;16.03;10.60;;;;;;;;;;5028786;28;58447;-74
2024/02/22 04:15:40;;;;;;;11.60;9.23;;;;;;;;;;5027539;28;58391;-73
2024/02/22 04:18:05;;;;;;;13.37;9.83;;;;;;;;;;5023117;28;59688;-74
2024/02/22 04:20:30;;;;;;;10.93;9.03;;;;;;;;;;5025131;28;58586;-74
2024/02/22 04:22:55;;;;;;;12.82;9.80;;;;;;;;;;5025852;28;58571;-74
2024/02/22 04:25:20;;;;;;;12.20;9.17;;;;;;;;;;5023655;28;58911;-74
2024/02/22 04:27:46;;;;;;;14.40;9.27;;;;;;;;;;5028765;28;58653;-74
2024/02/22 04:30:12;;;;;;;10.73;8.60;;;;;;;;;;5025532;28;59441;-74
2024/02/22 04:32:37;;;;;;;13.70;9.70;;;;;;;;;;5025354;28;59298;-74
2024/02/22 04:35:02;;;;;;;12.25;10.07;;;;;;;;;;5018718;28;58431;-74
2024/02/22 04:37:27;;;;;;;12.77;10.30;;;;;;;;;;5013025;28;59158;-73
2024/02/22 04:39:53;;;;;;;11.90;9.00;;;;;;;;;;5012136;28;58541;-74
2024/02/22 04:42:18;;;;;;;13.52;9.90;;;;;;;;;;5025513;28;59521;-74
2024/02/22 04:44:44;;;;;;;14.30;8.95;;;;;;;;;;5022722;28;59499;-74
2024/02/22 04:47:09;;;;;;;13.18;9.35;;;;;;;;;;5027392;28;58499;-74
2024/02/22 04:49:34;;;;;;;12.48;10.13;;;;;;;;;;5025856;28;58633;-71
2024/02/22 04:52:02;;;;;;;12.60;8.38;;;;;;;;;;5024727;28;58675;-72
2024/02/22 04:54:28;;;;;;;10.88;8.93;;;;;;;;;;5015541;28;58446;-72
2024/02/22 04:56:53;;;;;;;10.55;8.77;;;;;;;;;;5013337;28;59491;-72
2024/02/22 04:59:18;;;;;;;11.40;8.73;;;;;;;;;;5020417;28;58530;-71
2024/02/22 05:01:43;;;;;;;12.02;8.55;;;;;;;;;;5019549;28;61114;-71
2024/02/22 05:04:08;;;;;;;13.60;8.87;;;;;;;;;;5012284;28;59736;-71
2024/02/22 05:06:35;;;;;;;12.13;8.65;;;;;;;;;;5016220;28;58370;-72
2024/02/22 05:09:00;;;;;;;12.00;8.68;;;;;;;;;;5007523;28;59466;-71
2024/02/22 05:11:25;;;;;;;12.45;9.35;;;;;;;;;;5012910;28;59824;-72
2024/02/22 05:13:53;;;;;;;12.65;10.43;;;;;;;;;;5021393;28;58382;-72
2024/02/22 05:16:18;;;;;;;;;;;;;;;;;;5029833;28;60092;-71
2024/02/22 05:18:43;;;;;;;10.85;7.88;;;;;;;;;;5029758;28;58409;-71
2024/02/22 05:21:09;;;;;;;12.05;8.82;;;;;;;;;;5028204;28;58416;-72
2024/02/22 05:23:34;;;;;;;9.73;8.33;;;;;;;;;;5025162;28;59731;-72
2024/02/22 05:25:59;;;;;;;9.23;7.18;;;;;;;;;;5027772;27;58202;-72
2024/02/22 05:28:24;;;;;;;11.80;8.13;;;;;;;;;;5024248;28;59489;-72
2024/02/22 05:30:50;;;;;;;12.07;8.57;;;;;;;;;;5014478;28;59897;-72
2024/02/22 05:33:16;;;;;;;9.57;7.47;;;;;;;;;;5015929;28;58383;-71
2024/02/22 05:35:41;;;;;;;10.87;8.00;;;;;;;;;;5024944;28;59571;-72
2024/02/22 05:38:06;;;;;;;10.65;8.23;;;;;;;;;;5022692;28;58907;-71
2024/02/22 05:40:31;;;;;;;10.37;7.87;;;;;;;;;;5018882;28;58552;-72
2024/02/22 05:42:58;;;;;;;10.63;7.63;;;;;;;;;;5014254;28;58540;-71
2024/02/22 05:45:45;;;;;;;10.93;8.20;;;;;;;;;;5028304;28;58342;-71
2024/02/22 05:48:10;;;;;;;9.13;7.20;;;;;;;;;;5028507;28;59560;-71
2024/02/22 05:50:35;;;;;;;11.63;7.83;;;;;;;;;;5026077;28;58938;-71
2024/02/22 05:53:00;;;;;;;10.00;7.57;;;;;;;;;;5026353;28;58573;-72
2024/02/22 05:55:26;;;;;;;9.07;7.63;;;;;;;;;;5025652;28;58699;-71
2024/02/22 05:57:51;;;;;;;9.40;7.97;;;;;;;;;;5027811;28;58467;-72
2024/02/22 06:00:17;;;;;;;9.48;6.97;;;;;;;;;;5027840;28;58426;-71
2024/02/22 06:02:43;;;;;;;9.20;7.22;;;;;;;;;;5027103;28;58632;-71
2024/02/22 06:05:08;;;;;;;8.80;7.03;;;;;;;;;;5023122;28;58497;-72
2024/02/22 06:07:33;;;;;;;11.33;8.07;;;;;;;;;;5017877;28;58275;-72
2024/02/22 06:09:58;;;;;;;10.82;8.25;;;;;;;;;;5026769;28;60548;-72
2024/02/22 06:12:23;;;;;;;9.33;7.17;;;;;;;;;;5015082;28;58398;-71
2024/02/22 06:14:48;;;;;;;10.10;7.67;;;;;;;;;;5022995;28;59248;-71
2024/02/22 06:17:13;;;;;;;11.13;8.13;;;;;;;;;;5020127;28;58474;-71
2024/02/22 06:19:39;;;;;;;7.90;6.60;;;;;;;;;;5014619;28;58706;-71
2024/02/22 06:22:04;;;;;;;9.73;6.87;;;;;;;;;;5015836;28;59162;-72
2024/02/22 06:24:29;;;;;;;10.93;7.07;;;;;;;;;;5012731;28;59275;-72
2024/02/22 06:26:54;;;;;;;8.87;6.90;;;;;;;;;;5023055;28;58519;-71
2024/02/22 06:29:20;;;;;;;9.60;6.82;;;;;;;;;;5027351;28;58947;-71
2024/02/22 06:31:45;;;;;;;9.70;7.57;;;;;;;;;;5022801;28;58441;-71
2024/02/22 06:34:11;;;;;;;10.20;7.32;;;;;;;;;;5016267;28;60194;-72
2024/02/22 06:36:36;;;;;;;10.00;7.40;;;;;;;;;;5014959;28;58673;-71
2024/02/22 06:39:01;;;;;;;8.70;7.10;;;;;;;;;;5014938;28;58459;-71
2024/02/22 06:41:26;;;;;;;8.80;7.35;;;;;;;;;;5017568;28;61226;-72
2024/02/22 06:43:51;;;;;;;7.33;6.40;;;;;;;;;;5017715;28;60146;-72
2024/02/22 06:46:17;;;;;;;8.43;6.57;;;;;;;;;;5028065;27;58349;-72
2024/02/22 06:48:44;;;;;;;7.50;6.30;;;;;;;;;;5027417;28;59695;-71
2024/02/22 06:51:09;;;;;;;11.50;7.55;;;;;;;;;;5025598;28;58456;-71
2024/02/22 06:53:34;;;;;;;8.48;6.90;;;;;;;;;;5026776;28;58430;-71
2024/02/22 06:55:59;;;;;;;8.73;7.37;;;;;;;;;;5027252;28;58375;-71
2024/02/22 06:58:25;;;;;;;8.35;6.55;;;;;;;;;;5023435;28;58410;-71
2024/02/22 07:00:50;;;;;;;10.27;7.17;;;;;;;;;;5017265;28;60428;-72
2024/02/22 07:03:15;;;;;;;8.18;6.47;;;;;;;;;;5016298;28;59168;-72
2024/02/22 07:05:40;;;;;;;9.07;7.00;;;;;;;;;;5022452;28;58213;-72
2024/02/22 07:08:05;;;;;;;7.57;5.83;;;;;;;;;;5028911;28;58955;-71
2024/02/22 07:10:31;;;;;;;8.10;6.40;;;;;;;;;;5021194;28;58553;-74
2024/02/22 07:12:56;;;;;;;8.50;6.90;;;;;;;;;;5007561;28;59573;-74
2024/02/22 07:15:22;;;;;;;7.32;5.85;;;;;;;;;;5023888;28;58899;-74
2024/02/22 07:17:47;;;;;;;9.45;7.00;;;;;;;;;;5017749;28;58311;-77
2024/02/22 07:20:13;;;;;;;7.47;5.78;;;;;;;;;;5021417;28;59201;-76
2024/02/22 07:22:40;;;;;;;10.85;6.43;;;;;;;;;;5027921;27;58874;-73
2024/02/22 07:25:06;;;;;;;6.63;5.93;;;;;;;;;;5025218;28;58540;-74
2024/02/22 07:27:31;;;;;;;6.90;5.97;;;;;;;;;;5027721;28;59542;-74
2024/02/22 07:29:57;;;;;;;7.40;6.18;;;;;;;;;;5016115;28;58406;-74
2024/02/22 07:32:22;;;;;;;9.52;6.40;;;;;;;;;;5022641;28;59552;-74
2024/02/22 07:34:47;;;;;;;9.50;5.78;;;;;;;;;;5023236;28;58820;-75
2024/02/22 07:37:12;;;;;;;8.35;6.65;;;;;;;;;;5025506;28;58426;-74
2024/02/22 07:39:40;;;;;;;9.75;6.57;;;;;;;;;;5018161;28;58428;-74
2024/02/22 07:42:05;;;;;;;;;;;;;;;;;;5012172;28;59108;-75
2024/02/22 07:44:30;;;;;;;8.40;6.80;;;;;;;;;;5014474;28;57908;-74
2024/02/22 07:46:56;;;;;;;7.13;6.30;;;;;;;;;;5008649;28;59327;-74
2024/02/22 07:49:21;;;;;;;9.77;6.60;;;;;;;;;;5006977;28;59582;-75
2024/02/22 07:51:46;;;;;;;6.90;5.93;;;;;;;;;;5028905;28;59971;-74
2024/02/22 07:54:11;;;;;;;10.05;6.75;;;;;;;;;;5014706;28;58664;-74
2024/02/22 07:56:40;;;;;;;10.00;6.03;;;;;;;;;;5014642;28;58528;-75
2024/02/22 07:59:07;;;;;;;7.35;5.90;;;;;;;;;;5013200;28;59448;-75
2024/02/22 08:01:32;;;;;;;10.45;6.07;;;;;;;;;;5017054;28;59089;-74
2024/02/22 08:03:57;;;;;;;8.33;6.13;;;;;;;;;;5023782;28;58436;-75
2024/02/22 08:06:22;;;;;;;8.95;6.00;;;;;;;;;;5012770;28;59777;-75
2024/02/22 08:08:47;;;;;;;10.05;6.57;;;;;;;;;;5024801;28;58256;-75
2024/02/22 08:11:12;;;;;;;8.50;6.00;;;;;;;;;;5026321;28;58489;-76
2024/02/22 08:13:38;;;;;;;12.37;6.60;;;;;;;;;;5025023;28;60282;-75
2024/02/22 08:16:05;;;;;;;12.73;7.93;;;;;;;;;;5025547;28;58342;-75
2024/02/22 08:18:30;;;;;;;10.05;5.88;;;;;;;;;;5011446;28;59446;-74
2024/02/22 08:20:56;;;;;;;7.70;5.73;;;;;;;;;;5014937;28;58837;-72
2024/02/22 08:23:22;;;;;;;6.80;5.22;;;;;;;;;;5018900;28;58610;-72
2024/02/22 08:25:47;;;;;;;9.77;6.77;;;;;;;;;;5021776;28;59343;-72
2024/02/22 08:28:12;;;;;;;6.93;6.03;;;;;;;;;;5015751;28;59098;-73
2024/02/22 08:30:37;;;;;;;7.25;5.10;;;;;;;;;;5013742;28;58548;-75
2024/02/22 08:33:03;;;;;;;7.00;6.13;;;;;;;;;;5010230;28;58303;-74
2024/02/22 08:35:28;;;;;;;10.65;5.95;;;;;;;;;;5019184;28;58504;-74
2024/02/22 08:37:53;;;;;;;8.97;6.13;;;;;;;;;;5024000;28;59834;-74
2024/02/22 08:40:19;;;;;;;8.70;6.10;;;;;;;;;;5024002;28;58898;-74
2024/02/22 08:42:44;;;;;;;10.98;6.65;;;;;;;;;;5017786;28;58431;-75
2024/02/22 08:45:09;;;;;;;11.70;5.75;;;;;;;;;;5015413;28;60145;-74
2024/02/22 08:47:35;;;;;;;9.27;6.40;;;;;;;;;;5009947;28;59137;-75
2024/02/22 08:50:00;;;;;;;10.40;6.65;;;;;;;;;;5009238;28;58427;-74
2024/02/22 08:52:25;;;;;;;12.70;6.35;;;;;;;;;;5008394;28;59189;-74
2024/02/22 08:54:53;;;;;;;11.15;6.57;;;;;;;;;;5028918;28;58400;-74
2024/02/22 08:57:18;;;;;;;9.57;5.55;;;;;;;;;;5027167;28;58412;-74
2024/02/22 08:59:43;;;;;;;11.07;6.07;;;;;;;;;;5029816;28;58918;-74
2024/02/22 09:02:09;;;;;;;9.02;5.78;;;;;;;;;;5023586;28;58656;-74
2024/02/22 09:04:34;;;;;;;11.03;6.00;;;;;;;;;;5030483;28;59782;-74
2024/02/22 09:06:59;;;;;;;8.20;4.97;;;;;;;;;;5027611;28;58982;-74
2024/02/22 09:09:25;;;;;;;9.70;6.38;;;;;;;;;;5018067;28;58291;-75
2024/02/22 09:11:50;;;;;;;9.20;5.87;;;;;;;;;;5027411;28;58511;-74
2024/02/22 09:14:15;;;;;;;8.87;5.40;;;;;;;;;;5023108;28;59319;-74
2024/02/22 09:16:40;;;;;;;10.33;6.63;;;;;;;;;;5015365;28;59051;-73
2024/02/22 09:19:06;;;;;;;12.60;5.70;;;;;;;;;;5015021;28;58862;-74
2024/02/22 09:21:31;;;;;;;9.63;4.90;;;;;;;;;;5016006;28;58393;-74
2024/02/22 09:23:56;;;;;;;9.38;5.85;;;;;;;;;;5027661;28;59378;-74
2024/02/22 09:26:22;;;;;;;9.05;5.70;;;;;;;;;;5027693;28;58470;-74
2024/02/22 09:28:47;;;;;;;7.45;5.40;;;;;;;;;;5025542;28;58637;-74
2024/02/22 09:31:13;;;;;;;10.90;6.43;;;;;;;;;;5017242;28;58561;-74
2024/02/22 09:33:38;;;;;;;8.07;5.75;;;;;;;;;;5015742;28;59667;-74
2024/02/22 09:36:04;;;;;;;11.90;6.15;;;;;;;;;;5028412;28;58406;-75
2024/02/22 09:38:33;;;;;;;10.32;5.45;;;;;;;;;;5020274;28;58864;-74
2024/02/22 09:40:59;;;;;;;11.90;6.15;;;;;;;;;;5016220;28;58395;-74
2024/02/22 09:43:24;;;;;;;9.77;5.60;;;;;;;;;;5016119;28;59377;-75
2024/02/22 09:45:49;;;;;;;14.33;6.07;;;;;;;;;;5011472;28;58567;-74
2024/02/22 09:48:15;;;;;;;12.73;6.30;;;;;;;;;;5016621;28;58409;-75
2024/02/22 09:50:40;;;;;;;8.75;5.07;;;;;;;;;;5016404;28;59788;-74
2024/02/22 09:53:05;;;;;;;11.00;5.87;;;;;;;;;;5009866;28;58861;-74
2024/02/22 09:55:31;;;;;;;10.52;5.68;;;;;;;;;;5018166;28;58755;-75
2024/02/22 09:57:56;;;;;;;10.20;5.50;;;;;;;;;;5013386;28;59576;-74
2024/02/22 10:00:21;;;;;;;6.90;5.05;;;;;;;;;;5006567;28;58628;-75
2024/02/22 10:02:46;;;;;;;8.20;5.13;;;;;;;;;;5005599;28;59657;-75
2024/02/22 10:05:12;;;;;;;10.15;5.97;;;;;;;;;;5009182;28;59820;-74
2024/02/22 10:07:39;;;;;;;9.80;5.82;;;;;;;;;;5020609;28;58588;-74
2024/02/22 10:10:05;;;;;;;13.27;5.13;;;;;;;;;;5025774;28;59554;-74
2024/02/22 10:12:31;;;;;;;10.07;4.95;;;;;;;;;;5014002;28;59019;-74
2024/02/22 10:14:57;;;;;;;7.68;5.30;;;;;;;;;;5022261;28;57813;-74
2024/02/22 10:17:23;;;;;;;8.17;5.93;;;;;;;;;;5026361;28;59410;-75
2024/02/22 10:19:54;;;;;;;7.93;5.22;;;;;;;;;;5022926;28;58743;-74
2024/02/22 10:22:24;;;;;;;7.57;4.63;;;;;;;;;;5018046;28;59683;-75
2024/02/22 10:24:49;;;;;;;9.10;5.80;;;;;;;;;;5024968;28;58863;-74
2024/02/22 10:27:14;;;;;;;7.78;5.55;;;;;;;;;;5026583;28;58508;-75
2024/02/22 10:29:39;;;;;;;13.90;5.73;;;;;;;;;;5026556;28;60090;-74
2024/02/22 10:32:04;;;;;;;10.23;5.93;;;;;;;;;;5025124;28;59809;-75
2024/02/22 10:34:30;;;;;;;10.53;5.30;;;;;;;;;;5026241;28;58431;-75
2024/02/22 10:36:56;;;;;;;8.25;5.22;;;;;;;;;;5025633;28;59445;-75
2024/02/22 10:39:21;;;;;;;7.35;5.57;;;;;;;;;;5018145;28;58976;-74
2024/02/22 10:41:47;;;;;;;6.60;4.63;;;;;;;;;;5022373;28;58664;-74
2024/02/22 10:44:13;;;;;;;8.07;4.43;;;;;;;;;;5013087;28;58930;-75
2024/02/22 10:46:38;;;;;;;11.57;5.47;;;;;;;;;;5007648;28;58610;-74
2024/02/22 10:49:10;;;;;;;9.23;4.83;;;;;;;;;;5016186;28;59620;-72
2024/02/22 10:51:36;;;;;;;8.57;5.15;;;;;;;;;;5026396;28;59002;-72
2024/02/22 10:54:03;;;;;;;8.38;5.05;;;;;;;;;;5017336;28;58562;-72
2024/02/22 10:56:30;;;;;;;10.50;5.57;;;;;;;;;;5021969;28;59356;-72
2024/02/22 10:58:57;;;;;;;10.20;6.20;;;;;;;;;;5021293;28;59508;-72
2024/02/22 11:01:23;;;;;;;8.40;4.45;;;;;;;;;;5019601;28;58454;-72
2024/02/22 11:03:48;;;;;;;7.57;4.88;;;;;;;;;;5024767;28;60529;-72
2024/02/22 11:06:14;;;;;;;7.63;4.90;;;;;;;;;;5028951;28;58608;-72
2024/02/22 11:08:49;;;;;;;7.20;4.77;;;;;;;;;;5018569;28;60548;-72
2024/02/22 11:11:23;;;;;;;10.27;5.10;;;;;;;;;;5020188;28;58954;-72
2024/02/22 11:13:55;;;;;;;9.90;5.05;;;;;;;;;;5024458;28;58610;-72
2024/02/22 11:16:20;;;;;;;9.70;5.10;;;;;;;;;;5024600;28;58537;-71
2024/02/22 11:18:46;;;;;;;9.75;5.05;;;;;;;;;;5015995;28;58760;-72
2024/02/22 11:21:11;;;;;;;6.28;5.00;;;;;;;;;;5006195;28;58322;-71
2024/02/22 11:23:37;;;;;;;10.18;5.25;;;;;;;;;;5016878;28;60251;-72
2024/02/22 11:26:02;;;;;;;9.40;4.83;;;;;;;;;;5024943;27;58242;-73
2024/02/22 11:28:27;;;;;;;8.73;5.47;;;;;;;;;;5025679;28;59255;-73
2024/02/22 11:30:52;;;;;;;9.47;6.37;;;;;;;;;;5027716;28;58613;-72
2024/02/22 11:33:21;;;;;;;10.70;5.10;;;;;;;;;;5026076;28;58540;-73
2024/02/22 11:35:51;;;;;;;9.65;5.13;;;;;;;;;;5014738;28;60489;-73
2024/02/22 11:38:19;;;;;;;12.57;5.35;;;;;;;;;;5008216;28;58446;-73
2024/02/22 11:40:44;;;;;;;10.93;5.07;;;;;;;;;;5004640;28;58536;-73
2024/02/22 11:43:09;;;;;;;7.17;5.20;;;;;;;;;;5015909;28;59953;-73
2024/02/22 11:45:35;;;;;;;9.95;5.20;;;;;;;;;;5027459;28;58677;-73
2024/02/22 11:48:00;;;;;;;10.43;5.07;;;;;;;;;;5024625;28;59634;-73
2024/02/22 11:50:27;;;;;;;6.50;4.75;;;;;;;;;;5025408;28;58770;-73
2024/02/22 11:52:53;;;;;;;11.32;5.53;;;;;;;;;;5019568;28;58410;-73
2024/02/22 11:55:18;;;;;;;11.00;5.13;;;;;;;;;;5017029;28;58474;-73
2024/02/22 11:57:44;;;;;;;8.68;5.32;;;;;;;;;;5012740;28;59234;-73
2024/02/22 12:00:09;;;;;;;8.80;4.97;;;;;;;;;;5025686;28;58398;-73
2024/02/22 12:02:38;;;;;;;9.95;5.03;;;;;;;;;;5017193;28;60511;-74
2024/02/22 12:05:04;;;;;;;7.75;4.30;;;;;;;;;;5021370;28;58425;-72
2024/02/22 12:07:30;;;;;;;11.02;5.05;;;;;;;;;;5025693;28;58530;-73
2024/02/22 12:09:55;;;;;;;9.82;5.18;;;;;;;;;;5015325;28;58633;-73
2024/02/22 12:12:24;;;;;;;7.10;4.50;;;;;;;;;;5026056;28;58591;-74
2024/02/22 12:15:01;;;;;;;8.50;4.43;;;;;;;;;;5015438;28;58437;-73
2024/02/22 12:17:26;;;;;;;8.32;5.22;;;;;;;;;;5016892;28;59119;-74
2024/02/22 12:19:53;;;;;;;7.47;4.63;;;;;;;;;;5019146;28;58332;-73
2024/02/22 12:22:18;;;;;;;12.00;5.68;;;;;;;;;;5029839;28;59584;-74
2024/02/22 12:24:45;;;;;;;7.97;5.13;;;;;;;;;;5029264;28;59271;-73
2024/02/22 12:27:12;;;;;;;6.80;4.40;;;;;;;;;;5019477;28;58458;-73
2024/02/22 12:29:37;;;;;;;10.40;5.35;;;;;;;;;;5016770;28;60523;-74
2024/02/22 12:32:04;;;;;;;8.52;4.75;;;;;;;;;;5018265;28;58467;-74
2024/02/22 12:34:29;;;;;;;5.57;4.00;;;;;;;;;;5017122;28;58820;-73
2024/02/22 12:36:55;;;;;;;12.07;4.93;;;;;;;;;;5014145;28;59058;-73
2024/02/22 12:39:20;;;;;;;8.75;4.53;;;;;;;;;;5019394;28;58353;-73
2024/02/22 12:41:45;;;;;;;9.97;4.40;;;;;;;;;;5025552;28;59435;-73
2024/02/22 12:44:10;;;;;;;8.53;4.13;;;;;;;;;;5024190;28;59713;-73
2024/02/22 12:46:38;;;;;;;4.82;3.88;;;;;;;;;;5018979;28;58453;-72
2024/02/22 12:49:03;;;;;;;10.47;4.17;;;;;;;;;;5030755;27;59635;-73
2024/02/22 12:51:28;;;;;;;7.60;4.97;;;;;;;;;;5028736;28;58438;-73
2024/02/22 12:53:53;;;;;;;9.20;4.10;;;;;;;;;;5017526;28;59151;-73
2024/02/22 12:56:20;;;;;;;8.88;5.28;;;;;;;;;;5022088;28;59017;-73
2024/02/22 12:58:45;;;;;;;10.88;6.10;;;;;;;;;;5028824;28;58487;-73
2024/02/22 13:01:10;;;;;;;8.77;5.33;;;;;;;;;;5029459;28;59155;-75
2024/02/22 13:03:36;;;;;;;9.50;5.03;;;;;;;;;;5019182;28;59036;-73
2024/02/22 13:06:01;;;;;;;6.78;3.75;;;;;;;;;;5026359;28;58372;-74
2024/02/22 13:08:27;;;;;;;8.57;5.05;;;;;;;;;;5029657;27;59405;-74
2024/02/22 13:10:52;;;;;;;9.23;4.80;;;;;;;;;;5027406;28;59788;-74
2024/02/22 13:13:18;;;;;;;8.93;4.70;;;;;;;;;;5028327;28;60119;-74
2024/02/22 13:15:45;;;;;;;6.63;4.63;;;;;;;;;;5028088;28;58708;-75
2024/02/22 13:18:11;;;;;;;7.80;4.53;;;;;;;;;;5027908;27;58355;-74
2024/02/22 13:20:36;;;;;;;12.43;4.63;;;;;;;;;;5027416;28;59265;-72
2024/02/22 13:23:02;;;;;;;7.32;4.63;;;;;;;;;;5023946;28;59735;-74
2024/02/22 13:25:28;;;;;;;10.52;4.75;;;;;;;;;;5013608;28;58533;-74
2024/02/22 13:27:53;;;;;;;7.77;4.47;;;;;;;;;;5012415;28;58489;-74
2024/02/22 13:30:19;;;;;;;6.68;4.18;;;;;;;;;;5003921;28;58495;-73
2024/02/22 13:32:44;;;;;;;9.43;5.88;;;;;;;;;;5003399;28;58373;-73
2024/02/22 13:35:10;;;;;;;8.10;4.20;;;;;;;;;;5009167;28;59068;-73
2024/02/22 13:37:35;;;;;;;7.78;4.40;;;;;;;;;;5019489;28;58481;-74
2024/02/22 13:40:04;;;;;;;7.00;4.27;;;;;;;;;;5011776;28;59351;-73
2024/02/22 13:42:30;;;;;;;8.20;4.32;;;;;;;;;;5015402;28;58952;-73
2024/02/22 13:44:55;;;;;;;7.50;4.40;;;;;;;;;;5007552;28;58446;-73
2024/02/22 13:47:20;;;;;;;7.43;3.93;;;;;;;;;;5010392;28;60547;-72
2024/02/22 13:49:45;;;;;;;5.85;4.32;;;;;;;;;;5019683;28;60680;-72
2024/02/22 13:52:10;;;;;;;12.23;4.50;;;;;;;;;;5026578;28;58436;-72
2024/02/22 13:54:36;;;;;;;8.97;4.90;;;;;;;;;;5015474;28;60082;-72
2024/02/22 13:57:02;;;;;;;6.65;3.97;;;;;;;;;;5018523;28;58483;-72
2024/02/22 13:59:27;;;;;;;8.27;4.95;;;;;;;;;;5019958;28;60165;-73
2024/02/22 14:01:53;;;;;;;7.47;4.60;;;;;;;;;;5022581;28;59270;-73
2024/02/22 14:04:18;;;;;;;5.07;3.85;;;;;;;;;;5018998;28;58578;-73
2024/02/22 14:06:43;;;;;;;6.60;4.33;;;;;;;;;;5028303;28;59275;-72
2024/02/22 14:09:09;;;;;;;9.70;4.57;;;;;;;;;;5016950;28;59198;-76
2024/02/22 14:11:35;;;;;;;5.85;4.10;;;;;;;;;;5021718;28;58483;-75
2024/02/22 14:14:00;;;;;;;8.57;4.35;;;;;;;;;;5024170;28;59428;-75
2024/02/22 14:16:25;;;;;;;9.55;4.63;;;;;;;;;;5013217;28;58344;-75
2024/02/22 14:18:50;;;;;;;5.90;4.10;;;;;;;;;;5007819;28;60580;-75
2024/02/22 14:21:16;;;;;;;5.50;4.15;;;;;;;;;;5026012;28;58690;-73
2024/02/22 14:23:42;;;;;;;4.80;3.97;;;;;;;;;;5013460;28;58671;-73